Time;durP1;ratioP1;P1;durP2;ratioP2;P2;SDS_P1;SDS_P2;PMS_P1;PMS_P2;Temp;Humidity;BMP_temperature;BMP_pressure;BME280_temperature;BME280_humidity;BME280_pressure;Samples;Min_cycle;Max_cycle;Signal;HPM_P1;HPM_P2
2022/02/23 00:01:31;;;;;;;3.53;3.42;;;;;;;5.90;94.76;101731.69;6029305;23;20015;-70
2022/02/23 00:03:59;;;;;;;3.72;3.60;;;;;;;5.53;94.77;101696.66;5997755;23;20035;-70
2022/02/23 00:06:27;;;;;;;3.53;3.42;;;;;;;5.27;95.08;101652.81;6020476;23;20017;-70
2022/02/23 00:08:53;;;;;;;3.30;3.20;;;;;;;5.48;95.47;101736.66;5974736;23;20075;-71
2022/02/23 00:11:20;;;;;;;3.33;3.22;;;;;;;5.66;95.22;101740.75;6026325;23;20023;-72
2022/02/23 00:13:46;;;;;;;3.10;3.00;;;;;;;5.54;94.84;101747.00;5997490;23;20042;-71
2022/02/23 00:16:13;;;;;;;3.85;3.70;;;;;;;5.50;96.52;101748.78;6027091;23;20284;-71
2022/02/23 00:18:41;;;;;;;3.10;3.00;;;;;;;5.40;95.76;101744.59;6004078;23;20031;-71
2022/02/23 00:21:07;;;;;;;4.65;4.45;;;;;;;4.80;96.99;101649.13;6032928;23;20046;-72
2022/02/23 00:23:34;;;;;;;3.30;3.20;;;;;;;4.66;97.92;101619.84;6000484;23;20094;-71
2022/02/23 00:26:00;;;;;;;5.05;4.85;;;;;;;4.75;97.43;101630.97;6030700;23;20436;-71
2022/02/23 00:28:27;;;;;;;3.88;3.67;;;;;;;5.36;97.53;101759.38;6033349;23;20188;-72
2022/02/23 00:30:53;;;;;;;3.20;3.10;;;;;;;4.58;97.22;101654.56;5998718;23;20037;-71
2022/02/23 00:33:20;;;;;;;3.20;3.10;;;;;;;4.83;96.57;101687.22;6003073;23;20019;-71
2022/02/23 00:35:46;;;;;;;3.70;3.50;;;;;;;5.05;96.74;101734.63;5996260;23;20709;-71
2022/02/23 00:38:13;;;;;;;4.10;3.90;;;;;;;4.95;97.29;101723.47;6014422;23;20089;-71
2022/02/23 00:40:39;;;;;;;3.72;3.42;;;;;;;4.76;97.06;101697.69;6003790;23;20091;-71
2022/02/23 00:43:06;;;;;;;4.80;4.60;;;;;;;4.85;96.18;101690.66;6026545;23;20015;-70
2022/02/23 00:45:33;;;;;;;3.10;3.00;;;;;;;5.35;96.19;101772.41;6035571;23;20019;-71
2022/02/23 00:47:59;;;;;;;4.60;4.40;;;;;;;5.16;95.99;101762.25;6011113;23;20021;-71
2022/02/23 00:50:26;;;;;;;3.20;3.10;;;;;;;4.52;95.87;101661.59;6024727;23;20018;-71
2022/02/23 00:52:52;;;;;;;3.30;3.20;;;;;;;4.98;96.14;101744.25;6029110;23;20050;-72
2022/02/23 00:55:19;;;;;;;3.17;3.08;;;;;;;4.73;95.96;101726.34;6020245;23;20007;-71
2022/02/23 00:57:45;;;;;;;3.15;3.05;;;;;;;4.91;95.42;101785.09;5999465;23;20157;-71
2022/02/23 01:00:13;;;;;;;5.00;4.80;;;;;;;4.84;94.98;101770.44;6012143;23;20034;-71
2022/02/23 01:02:40;;;;;;;3.22;3.13;;;;;;;4.06;95.54;101633.50;6028827;23;20122;-71
2022/02/23 01:05:07;;;;;;;4.63;4.43;;;;;;;4.52;95.96;101732.63;5990306;23;20430;-72
2022/02/23 01:07:34;;;;;;;3.05;2.95;;;;;;;4.27;96.09;101720.75;6020763;23;20030;-71
2022/02/23 01:10:00;;;;;;;4.65;4.45;;;;;;;4.50;95.63;101756.94;6026706;23;20031;-71
2022/02/23 01:12:27;;;;;;;3.20;3.10;;;;;;;4.26;95.98;101711.25;6007431;23;20586;-72
2022/02/23 01:14:56;;;;;;;3.55;3.42;;;;;;;4.74;96.91;101806.06;5982607;23;20058;-71
2022/02/23 01:17:23;;;;;;;3.30;3.20;;;;;;;4.60;96.95;101814.00;6027661;23;20521;-70
2022/02/23 01:19:50;;;;;;;3.30;3.20;;;;;;;4.23;97.15;101760.63;6042384;23;20410;-70
2022/02/23 01:22:16;;;;;;;4.05;3.85;;;;;;;4.54;97.70;101831.41;6023863;23;20067;-71
2022/02/23 01:24:43;;;;;;;3.20;3.10;;;;;;;3.57;97.42;101682.41;6000575;23;20109;-72
2022/02/23 01:27:09;;;;;;;4.68;4.47;;;;;;;4.08;96.75;101766.81;6030577;23;20022;-71
2022/02/23 01:29:36;;;;;;;3.03;2.92;;;;;;;4.52;97.01;101835.75;5997269;23;20019;-71
2022/02/23 01:32:03;;;;;;;4.95;4.75;;;;;;;4.43;97.11;101830.63;5997542;23;20234;-72
2022/02/23 01:34:29;;;;;;;3.13;3.03;;;;;;;4.40;96.89;101836.72;6043099;23;20504;-71
2022/02/23 01:36:56;;;;;;;2.97;2.88;;;;;;;4.37;96.16;101841.94;6019906;23;20023;-71
2022/02/23 01:39:22;;;;;;;3.20;3.10;;;;;;;4.16;96.96;101832.56;6009658;23;20048;-73
2022/02/23 01:41:49;;;;;;;3.03;2.92;;;;;;;4.00;96.14;101806.69;6025623;23;20019;-71
2022/02/23 01:44:15;;;;;;;3.30;3.20;;;;;;;3.64;95.67;101747.25;6031754;23;20006;-72
2022/02/23 01:46:42;;;;;;;3.15;3.05;;;;;;;4.34;96.22;101857.56;6032641;23;20018;-72
2022/02/23 01:49:08;;;;;;;4.75;4.55;;;;;;;3.64;95.87;101786.19;6041856;23;20022;-70
2022/02/23 01:51:36;;;;;;;3.10;3.00;;;;;;;4.29;95.33;101873.19;6009868;23;20085;-70
2022/02/23 01:54:03;;;;;;;4.32;4.13;;;;;;;1.98;95.44;101513.91;5980292;23;20051;-71
2022/02/23 01:56:29;;;;;;;2.80;2.70;;;;;;;4.24;94.69;101871.50;6003318;23;20053;-71
2022/02/23 01:58:56;;;;;;;3.10;3.00;;;;;;;4.20;95.20;101874.09;5992212;23;20031;-70
2022/02/23 02:01:22;;;;;;;28.85;3.88;;;;;;;4.19;96.06;101874.13;6016113;23;20226;-70
2022/02/23 02:03:49;;;;;;;2.95;2.85;;;;;;;4.09;95.90;101870.72;6007573;23;20054;-72
2022/02/23 02:06:17;;;;;;;2.90;2.80;;;;;;;3.99;95.37;101875.13;6025138;23;20035;-71
2022/02/23 02:08:43;;;;;;;2.90;2.80;;;;;;;3.08;95.61;101728.50;5999473;23;20043;-70
2022/02/23 02:11:11;;;;;;;4.47;4.28;;;;;;;3.30;95.92;101796.72;6005095;23;20095;-71
2022/02/23 02:13:37;;;;;;;2.97;2.88;;;;;;;3.41;96.33;101802.75;5975183;23;20099;-71
2022/02/23 02:16:04;;;;;;;4.85;4.65;;;;;;;3.73;97.16;101871.81;6030856;23;20023;-71
2022/02/23 02:18:30;;;;;;;3.20;3.10;;;;;;;3.80;96.20;101886.47;6025739;23;20015;-71
2022/02/23 02:20:57;;;;;;;3.22;3.13;;;;;;;3.65;96.84;101876.16;5996896;23;20078;-71
2022/02/23 02:23:23;;;;;;;3.03;2.92;;;;;;;3.62;97.69;101855.41;6030639;23;20042;-71
2022/02/23 02:25:50;;;;;;;3.30;3.20;;;;;;;3.48;97.38;101832.97;6025583;23;20023;-71
2022/02/23 02:28:16;;;;;;;3.10;3.00;;;;;;;3.73;97.00;101896.03;6027983;23;21094;-71
2022/02/23 02:30:43;;;;;;;3.10;3.00;;;;;;;3.70;97.17;101884.78;6023134;23;20345;-71
2022/02/23 02:33:10;;;;;;;4.35;4.15;;;;;;;3.71;98.32;101894.28;6026582;23;20007;-70
2022/02/23 02:35:36;;;;;;;2.88;2.78;;;;;;;3.26;98.05;101795.88;6000072;23;20027;-70
2022/02/23 02:38:03;;;;;;;4.57;4.38;;;;;;;3.80;98.56;101892.50;6025782;23;20082;-71
2022/02/23 02:40:31;;;;;;;2.90;2.80;;;;;;;3.69;97.36;101888.25;6035100;23;20026;-71
2022/02/23 02:42:57;;;;;;;3.47;3.38;;;;;;;2.89;98.26;101769.22;6001981;23;20250;-70
2022/02/23 02:45:25;;;;;;;3.03;2.92;;;;;;;3.50;98.03;101870.16;6037827;23;20023;-71
2022/02/23 02:47:52;;;;;;;2.85;2.75;;;;;;;3.71;98.38;101886.50;6046872;23;20262;-70
2022/02/23 02:50:18;;;;;;;3.00;2.90;;;;;;;3.42;98.25;101874.50;5969868;23;20062;-70
2022/02/23 02:52:45;;;;;;;3.05;2.95;;;;;;;3.31;98.72;101865.91;6027584;23;20130;-72
2022/02/23 02:55:11;;;;;;;6.22;5.93;;;;;;;3.51;98.81;101897.84;6026514;23;20031;-71
2022/02/23 02:57:39;;;;;;;2.92;2.83;;;;;;;3.12;98.74;101837.41;6025161;23;20042;-71
2022/02/23 03:00:08;;;;;;;4.43;4.22;;;;;;;3.52;99.40;101912.53;6024958;23;20389;-73
2022/02/23 03:02:35;;;;;;;3.40;3.30;;;;;;;2.94;99.84;101811.53;6006285;23;20062;-72
2022/02/23 03:05:02;;;;;;;3.60;3.50;;;;;;;3.23;99.64;101857.28;6034127;23;20338;-72
2022/02/23 03:07:28;;;;;;;2.90;2.80;;;;;;;3.50;100.00;101914.28;6003681;23;20023;-71
2022/02/23 03:09:55;;;;;;;3.47;3.35;;;;;;;3.49;99.74;101909.97;6009844;23;20027;-69
2022/02/23 03:12:21;;;;;;;3.20;3.10;;;;;;;3.41;99.35;101914.31;6049932;23;20912;-71
2022/02/23 03:14:48;;;;;;;3.17;3.08;;;;;;;3.34;99.69;101917.78;6000928;23;20027;-70
2022/02/23 03:17:14;;;;;;;3.03;2.92;;;;;;;2.89;99.79;101840.09;6025802;23;20011;-70
2022/02/23 03:19:41;;;;;;;3.20;3.10;;;;;;;3.10;100.00;101911.78;6039476;23;20035;-70
2022/02/23 03:22:07;;;;;;;4.57;4.38;;;;;;;2.44;100.00;101807.31;5987552;23;20034;-70
2022/02/23 03:24:33;;;;;;;2.90;2.80;;;;;;;3.19;100.00;101929.06;5999881;23;20261;-71
2022/02/23 03:27:00;;;;;;;3.72;3.60;;;;;;;2.47;100.00;101823.72;6029265;23;20018;-71
2022/02/23 03:29:26;;;;;;;2.97;2.88;;;;;;;2.90;100.00;101853.91;5977805;23;20063;-70
2022/02/23 03:31:53;;;;;;;3.10;3.00;;;;;;;3.39;100.00;101945.47;5997721;23;20081;-70
2022/02/23 03:34:19;;;;;;;3.10;3.00;;;;;;;2.47;100.00;101799.56;6028103;23;20068;-71
2022/02/23 03:36:45;;;;;;;2.90;2.80;;;;;;;3.27;100.00;101953.28;6024486;23;20454;-71
2022/02/23 03:39:12;;;;;;;4.53;4.32;;;;;;;3.29;100.00;101951.53;6001989;23;20102;-71
2022/02/23 03:41:38;;;;;;;25.58;3.65;;;;;;;2.95;100.00;101914.41;6025171;23;20440;-71
2022/02/23 03:44:05;;;;;;;4.43;4.22;;;;;;;3.16;100.00;101935.09;6004740;23;20105;-70
2022/02/23 03:46:32;;;;;;;3.00;2.90;;;;;;;3.38;100.00;101956.69;6025615;23;20417;-71
2022/02/23 03:48:58;;;;;;;4.30;4.10;;;;;;;3.38;99.39;101964.47;6002157;23;20499;-71
2022/02/23 03:51:24;;;;;;;2.90;2.80;;;;;;;3.38;99.28;101961.03;6028825;23;20102;-70
2022/02/23 03:53:51;;;;;;;3.10;2.97;;;;;;;3.33;99.09;101940.28;6002019;23;20358;-71
2022/02/23 03:59:06;;;;;;;4.38;4.18;;;;;;;2.88;97.86;101912.69;6000558;23;20373;-71
2022/02/23 04:01:33;;;;;;;2.75;2.65;;;;;;;3.30;98.85;101980.94;6025480;23;20027;-71
2022/02/23 04:04:03;;;;;;;3.92;3.78;;;;;;;3.13;98.21;101968.00;6006262;23;20333;-70
2022/02/23 04:06:30;;;;;;;2.88;2.78;;;;;;;3.33;98.21;101984.38;6018755;23;20098;-71
2022/02/23 04:09:03;;;;;;;4.35;4.15;;;;;;;3.09;98.39;101917.84;5996256;23;20023;-71
2022/02/23 04:11:29;;;;;;;2.90;2.80;;;;;;;3.51;96.88;101995.63;6029698;23;20448;-71
2022/02/23 04:13:56;;;;;;;3.08;2.97;;;;;;;2.04;97.02;101787.44;6019896;23;20038;-71
2022/02/23 04:16:22;;;;;;;3.00;2.90;;;;;;;3.09;96.92;101974.06;5985614;23;20037;-71
2022/02/23 04:18:50;;;;;;;17.08;16.27;;;;;;;3.00;97.27;101977.50;5992483;23;20423;-72
2022/02/23 04:21:17;;;;;;;2.90;2.80;;;;;;;2.82;97.32;101941.19;5951359;23;20344;-71
2022/02/23 04:23:46;;;;;;;2.97;2.88;;;;;;;3.36;96.69;102025.88;6024023;23;20015;-70
2022/02/23 04:26:13;;;;;;;2.88;2.78;;;;;;;3.35;97.19;102018.13;6031046;23;20266;-71
2022/02/23 04:28:40;;;;;;;2.72;2.63;;;;;;;3.05;96.32;101998.22;6035775;23;20533;-71
2022/02/23 04:31:06;;;;;;;4.43;4.22;;;;;;;2.88;97.29;101969.72;5985779;23;20028;-71
2022/02/23 04:33:32;;;;;;;2.90;2.80;;;;;;;3.22;97.33;102035.41;6030233;23;20015;-71
2022/02/23 04:35:59;;;;;;;4.55;4.35;;;;;;;2.99;97.29;102005.16;5992111;23;20023;-71
2022/02/23 04:38:25;;;;;;;2.95;2.85;;;;;;;2.64;96.85;101971.41;5992055;23;20186;-71
2022/02/23 04:40:52;;;;;;;3.05;2.95;;;;;;;2.26;96.91;101911.78;6034207;23;20011;-71
2022/02/23 04:43:18;;;;;;;3.00;2.90;;;;;;;3.03;97.37;102051.81;6017780;23;20011;-72
2022/02/23 04:45:45;;;;;;;2.95;2.85;;;;;;;2.97;97.43;102078.66;6033500;23;20023;-70
2022/02/23 04:48:13;;;;;;;4.40;4.20;;;;;;;2.47;97.87;102004.25;6035863;23;20089;-70
2022/02/23 04:50:39;;;;;;;2.90;2.80;;;;;;;2.08;97.55;101954.03;6028468;23;20046;-70
2022/02/23 04:53:06;;;;;;;4.53;4.32;;;;;;;2.50;98.62;101993.84;6029313;23;20039;-71
2022/02/23 04:55:32;;;;;;;2.90;2.80;;;;;;;2.12;97.42;101974.75;5984939;23;20012;-71
2022/02/23 04:57:58;;;;;;;3.92;3.75;;;;;;;2.64;98.54;102069.06;6025584;23;20007;-71
2022/02/23 05:00:25;;;;;;;2.80;2.70;;;;;;;2.26;98.75;102047.31;6000017;23;20007;-71
2022/02/23 05:02:51;;;;;;;3.05;2.95;;;;;;;2.46;98.77;102080.22;6032873;23;20037;-71
2022/02/23 05:05:18;;;;;;;2.90;2.80;;;;;;;1.87;99.44;101985.91;6028162;23;20030;-71
2022/02/23 05:07:44;;;;;;;2.70;2.60;;;;;;;2.03;99.42;102023.94;5992709;23;20717;-71
2022/02/23 05:10:13;;;;;;;3.22;3.13;;;;;;;1.38;99.59;101917.53;6020937;23;20031;-70
2022/02/23 05:12:40;;;;;;;2.80;2.70;;;;;;;2.31;100.00;102081.03;5992147;23;20083;-71
2022/02/23 05:15:11;;;;;;;4.47;4.28;;;;;;;2.13;100.00;102046.41;6029938;23;20024;-70
2022/02/23 05:17:42;;;;;;;2.80;2.70;;;;;;;1.35;100.00;101920.06;5999877;23;20023;-71
2022/02/23 05:20:10;;;;;;;4.60;4.40;;;;;;;2.22;100.00;102070.63;6027874;23;20032;-71
2022/02/23 05:22:36;;;;;;;2.70;2.60;;;;;;;2.29;100.00;102088.78;6032623;23;20102;-71
2022/02/23 05:25:05;;;;;;;4.88;4.65;;;;;;;2.07;100.00;102059.34;5999242;23;20021;-71
2022/02/23 05:27:31;;;;;;;3.00;2.90;;;;;;;2.20;100.00;102093.91;6032052;23;20043;-70
2022/02/23 05:29:58;;;;;;;3.97;3.80;;;;;;;1.92;100.00;102073.06;5970663;23;20016;-70
2022/02/23 05:32:24;;;;;;;3.00;2.90;;;;;;;1.29;100.00;101950.22;6023998;23;20409;-71
2022/02/23 05:34:50;;;;;;;2.80;2.70;;;;;;;2.21;100.00;102098.25;5995098;23;20035;-70
2022/02/23 05:37:17;;;;;;;2.88;2.78;;;;;;;2.01;100.00;102068.81;5998203;23;20038;-71
2022/02/23 05:39:43;;;;;;;2.70;2.60;;;;;;;2.10;100.00;102102.50;6024268;23;20029;-71
2022/02/23 05:42:10;;;;;;;4.13;3.92;;;;;;;2.03;100.00;102105.94;6029178;23;20030;-71
2022/02/23 05:44:36;;;;;;;2.75;2.65;;;;;;;1.98;100.00;102114.53;6042286;23;20052;-71
2022/02/23 05:47:03;;;;;;;3.10;2.95;;;;;;;1.88;100.00;102133.44;6013511;23;20047;-71
2022/02/23 05:49:29;;;;;;;2.80;2.70;;;;;;;1.35;100.00;102041.63;6036880;23;20014;-71
2022/02/23 05:51:56;;;;;;;2.85;2.75;;;;;;;1.10;100.00;102027.66;6002131;23;20007;-71
2022/02/23 05:54:23;;;;;;;2.90;2.80;;;;;;;1.63;100.00;102121.19;6032998;23;20027;-69
2022/02/23 05:56:50;;;;;;;2.85;2.75;;;;;;;1.33;100.00;102060.59;6043690;23;20070;-70
2022/02/23 05:59:16;;;;;;;3.30;3.10;;;;;;;0.96;100.00;102011.13;6040875;23;20091;-70
2022/02/23 06:01:43;;;;;;;2.70;2.60;;;;;;;1.37;100.00;102093.38;6044984;23;20031;-70
2022/02/23 06:04:09;;;;;;;4.95;4.75;;;;;;;1.18;100.00;102061.31;6034324;23;20098;-71
2022/02/23 06:06:36;;;;;;;2.80;2.70;;;;;;;1.28;100.00;102078.63;6027545;23;20018;-71
2022/02/23 06:09:02;;;;;;;4.28;4.07;;;;;;;0.73;100.00;102008.38;6019252;23;20017;-71
2022/02/23 06:11:29;;;;;;;2.80;2.70;;;;;;;1.45;100.00;102127.94;6007485;23;20051;-71
2022/02/23 06:13:55;;;;;;;2.75;2.65;;;;;;;1.38;100.00;102116.69;6028352;23;20037;-70
2022/02/23 06:16:24;;;;;;;3.30;3.20;;;;;;;1.26;100.00;102107.94;6036090;23;20082;-70
2022/02/23 06:18:52;;;;;;;2.85;2.75;;;;;;;1.28;100.00;102132.94;6000069;23;20027;-70
2022/02/23 06:21:18;;;;;;;2.80;2.70;;;;;;;0.63;100.00;102040.97;6032095;23;20116;-70
2022/02/23 06:23:45;;;;;;;2.72;2.63;;;;;;;0.50;100.00;102024.50;6005634;23;20410;-70
2022/02/23 06:26:12;;;;;;;4.35;4.15;;;;;;;0.73;100.00;102067.78;6029917;23;20027;-70
2022/02/23 06:28:38;;;;;;;2.97;2.88;;;;;;;1.16;100.00;102143.16;6030836;23;20022;-70
2022/02/23 06:31:06;;;;;;;4.45;4.25;;;;;;;0.76;100.00;102088.47;5999178;23;20022;-70
2022/02/23 06:33:33;;;;;;;3.00;2.90;;;;;;;0.66;100.00;102082.38;5998769;23;20173;-70
2022/02/23 06:35:59;;;;;;;4.15;3.97;;;;;;;0.67;100.00;102083.22;6027639;23;20030;-73
2022/02/23 06:38:26;;;;;;;2.80;2.70;;;;;;;0.38;100.00;102038.16;6003126;23;20096;-71
2022/02/23 06:40:56;;;;;;;2.70;2.60;;;;;;;1.07;100.00;102154.28;6013519;23;20020;-70
2022/02/23 06:43:24;;;;;;;3.05;2.95;;;;;;;0.72;100.00;102108.28;6023286;23;20030;-70
2022/02/23 06:45:52;;;;;;;3.33;3.22;;;;;;;0.95;100.00;102133.50;6015876;23;20046;-72
2022/02/23 06:48:19;;;;;;;2.90;2.80;;;;;;;0.73;100.00;102084.16;6028878;23;20017;-70
2022/02/23 06:50:46;;;;;;;2.65;2.55;;;;;;;0.89;100.00;102108.44;6011684;23;20091;-70
2022/02/23 06:53:13;;;;;;;4.38;4.18;;;;;;;1.27;100.00;102177.78;6023619;23;20038;-72
2022/02/23 06:55:41;;;;;;;2.72;2.63;;;;;;;1.36;100.00;102164.94;5997119;23;20016;-72
2022/02/23 06:58:08;;;;;;;4.30;4.10;;;;;;;1.29;100.00;102147.63;6026228;23;20023;-71
2022/02/23 07:00:36;;;;;;;2.70;2.60;;;;;;;1.15;100.00;102111.28;6014964;23;20504;-71
2022/02/23 07:03:02;;;;;;;4.38;4.18;;;;;;;1.43;100.00;102140.00;6033633;23;20048;-72
2022/02/23 07:05:30;;;;;;;2.60;2.50;;;;;;;1.68;100.00;102166.06;6008522;23;20101;-70
2022/02/23 07:07:58;;;;;;;3.70;3.50;;;;;;;1.75;100.00;102180.81;5995064;23;21871;-71
2022/02/23 07:10:27;;;;;;;3.05;2.95;;;;;;;1.82;100.00;102186.88;6023592;23;20027;-71
2022/02/23 07:12:55;;;;;;;2.90;2.80;;;;;;;0.90;100.00;102011.09;5997627;23;20201;-73
2022/02/23 07:15:24;;;;;;;3.05;2.95;;;;;;;1.96;100.00;102178.34;6031731;23;20039;-70
2022/02/23 07:17:51;;;;;;;3.33;3.03;;;;;;;2.03;100.00;102178.44;6003355;23;20032;-70
2022/02/23 07:20:18;;;;;;;3.10;3.00;;;;;;;2.13;100.00;102169.88;6002933;23;20027;-72
2022/02/23 07:22:45;;;;;;;3.10;3.00;;;;;;;2.19;100.00;102181.13;6025037;23;20051;-70
2022/02/23 07:25:12;;;;;;;4.35;4.15;;;;;;;2.07;100.00;102159.47;6013507;23;20527;-72
2022/02/23 07:27:39;;;;;;;2.85;2.75;;;;;;;2.17;100.00;102161.25;6021791;23;20030;-70
2022/02/23 07:30:09;;;;;;;4.30;4.10;;;;;;;2.37;100.00;102185.56;6021738;23;20450;-70
2022/02/23 07:32:37;;;;;;;3.10;3.00;;;;;;;2.09;100.00;102124.09;5998933;23;20043;-71
2022/02/23 07:35:05;;;;;;;4.72;4.53;;;;;;;2.03;100.00;102117.16;6013792;23;20676;-71
2022/02/23 07:37:37;;;;;;;3.10;3.00;;;;;;;2.36;100.00;102165.66;5996018;23;20061;-71
2022/02/23 07:40:11;;;;;;;4.43;4.22;;;;;;;2.66;100.00;102200.38;6010317;23;20058;-71
2022/02/23 07:43:00;;;;;;;4.07;3.90;;;;;;;2.77;100.00;102206.47;5988298;23;20011;-71
2022/02/23 07:45:36;;;;;;;2.90;2.80;;;;;;;2.87;100.00;102201.34;6031582;23;20090;-71
2022/02/23 07:48:04;;;;;;;4.78;4.57;;;;;;;2.94;100.00;102206.53;6038301;23;20026;-71
2022/02/23 07:50:31;;;;;;;2.85;2.75;;;;;;;2.49;100.00;102130.34;6004057;23;20019;-70
2022/02/23 07:52:58;;;;;;;3.40;3.28;;;;;;;2.51;100.00;102104.44;5972989;23;20551;-70
2022/02/23 07:55:25;;;;;;;3.00;2.90;;;;;;;3.16;100.00;102198.84;6027018;23;20584;-73
2022/02/23 07:57:53;;;;;;;2.90;2.80;;;;;;;3.34;100.00;102221.38;6026603;23;20023;-71
2022/02/23 08:00:22;;;;;;;5.05;4.85;;;;;;;3.49;100.00;102216.22;6021256;23;20600;-71
2022/02/23 08:02:49;;;;;;;3.13;3.03;;;;;;;3.00;100.00;102141.72;6023256;23;20118;-71
2022/02/23 08:05:16;;;;;;;3.10;3.00;;;;;;;3.43;100.00;102182.47;6025158;23;20026;-71
2022/02/23 08:07:42;;;;;;;3.30;3.20;;;;;;;3.25;100.00;102146.09;6025409;23;20035;-71
2022/02/23 08:10:09;;;;;;;4.35;4.15;;;;;;;3.51;100.00;102174.72;5986256;23;20434;-71
2022/02/23 08:12:36;;;;;;;3.00;2.90;;;;;;;3.29;100.00;102107.22;6024376;23;20081;-71
2022/02/23 08:20:38;;;;;;;3.10;3.00;;;;;;;3.85;99.25;102149.59;6026900;23;20079;-71
2022/02/23 08:23:04;;;;;;;4.78;4.57;;;;;;;4.43;97.89;102216.19;6020433;23;20098;-71
2022/02/23 08:25:30;;;;;;;3.13;3.03;;;;;;;3.80;97.24;102078.63;5975037;23;20018;-71
2022/02/23 08:27:58;;;;;;;3.75;3.60;;;;;;;2.90;96.62;101913.53;6002782;23;20029;-71
2022/02/23 08:30:25;;;;;;;3.20;3.10;;;;;;;4.79;94.87;102219.53;5990513;23;20022;-71
2022/02/23 08:32:52;;;;;;;3.30;3.20;;;;;;;4.86;95.36;102217.78;5981115;23;20090;-72
2022/02/23 08:35:39;;;;;;;3.50;3.40;;;;;;;4.99;94.07;102216.84;5996193;23;20372;-72
2022/02/23 08:38:11;;;;;;;4.60;4.40;;;;;;;2.93;92.97;101859.09;5980656;23;20016;-72
2022/02/23 08:40:43;;;;;;;3.30;3.20;;;;;;;4.52;92.69;102095.72;6017585;23;20354;-71
2022/02/23 08:43:11;;;;;;;4.68;4.47;;;;;;;5.36;92.13;102214.06;5989299;23;20008;-71
2022/02/23 08:45:38;;;;;;;3.10;3.00;;;;;;;4.64;90.34;102074.00;6000945;23;20213;-71
2022/02/23 08:48:08;;;;;;;5.13;4.85;;;;;;;5.64;89.18;102216.50;5986815;23;20026;-72
2022/02/23 08:50:34;;;;;;;3.20;3.10;;;;;;;5.41;88.88;102162.81;6002900;23;20087;-71
2022/02/23 08:53:01;;;;;;;4.90;4.70;;;;;;;5.85;88.70;102218.91;6001733;23;20041;-71
2022/02/23 08:55:28;;;;;;;3.47;3.38;;;;;;;5.94;88.59;102216.25;6024805;23;20029;-71
2022/02/23 08:57:58;;;;;;;5.75;4.63;;;;;;;5.57;86.91;102147.94;6028748;23;20085;-70
2022/02/23 09:00:25;;;;;;;3.20;3.10;;;;;;;5.50;85.73;102125.47;5985610;23;20031;-71
2022/02/23 09:02:52;;;;;;;3.28;3.17;;;;;;;5.03;85.91;102030.38;6017478;23;20042;-72
2022/02/23 09:05:19;;;;;;;3.20;3.10;;;;;;;6.31;84.74;102226.34;6014350;23;20023;-71
2022/02/23 09:07:45;;;;;;;3.05;2.95;;;;;;;6.39;84.00;102229.78;5988165;23;20271;-72
2022/02/23 09:10:12;;;;;;;4.80;4.60;;;;;;;6.18;84.09;102193.50;6011068;23;20604;-72
2022/02/23 09:12:38;;;;;;;3.30;3.20;;;;;;;6.55;83.46;102235.66;6000925;23;20098;-72
2022/02/23 09:15:07;;;;;;;4.55;4.35;;;;;;;6.67;82.53;102239.91;5991644;23;20034;-72
2022/02/23 09:17:34;;;;;;;3.25;3.15;;;;;;;6.71;83.03;102243.34;5989472;23;20017;-72
2022/02/23 09:20:03;;;;;;;4.88;4.63;;;;;;;6.16;82.62;102141.34;6021257;23;20018;-71
2022/02/23 09:22:29;;;;;;;3.25;3.15;;;;;;;6.66;82.19;102211.25;6011852;23;20182;-70
2022/02/23 09:24:55;;;;;;;3.60;3.47;;;;;;;6.88;82.71;102217.06;5996638;23;20089;-72
2022/02/23 09:27:22;;;;;;;3.60;3.50;;;;;;;6.47;82.47;102145.38;5996407;23;20030;-71
2022/02/23 09:29:49;;;;;;;3.30;3.20;;;;;;;6.77;81.38;102180.66;6035072;23;20097;-72
2022/02/23 09:32:15;;;;;;;3.60;3.50;;;;;;;6.09;81.16;102058.03;6029736;23;20097;-71
2022/02/23 09:34:43;;;;;;;3.40;3.30;;;;;;;7.10;79.79;102225.50;5996230;23;20014;-70
2022/02/23 09:37:09;;;;;;;5.10;4.80;;;;;;;7.17;80.26;102227.13;6019792;23;20037;-71
2022/02/23 09:39:36;;;;;;;3.20;3.10;;;;;;;7.48;80.29;102245.84;5996065;23;20085;-72
2022/02/23 09:42:03;;;;;;;4.88;4.68;;;;;;;7.07;79.88;102184.59;6013551;23;20022;-70
2022/02/23 09:44:30;;;;;;;3.25;3.15;;;;;;;5.98;79.67;101987.81;6009592;23;20460;-71
2022/02/23 09:47:00;;;;;;;4.72;4.53;;;;;;;7.58;79.75;102242.22;5987085;23;20022;-73
2022/02/23 09:49:29;;;;;;;3.55;3.45;;;;;;;7.29;78.35;102190.38;5998107;23;20499;-72
2022/02/23 09:51:57;;;;;;;4.75;4.47;;;;;;;7.67;77.42;102235.13;5995556;23;20015;-74
2022/02/23 09:54:23;;;;;;;3.67;3.58;;;;;;;7.07;77.60;102102.81;5991501;23;20463;-73
2022/02/23 09:56:50;;;;;;;3.50;3.40;;;;;;;7.59;77.96;102186.44;5973201;23;20094;-73
2022/02/23 09:59:19;;;;;;;3.50;3.40;;;;;;;8.02;77.00;102241.53;6018241;23;20113;-74
2022/02/23 10:01:45;;;;;;;3.70;3.60;;;;;;;7.03;76.35;102057.63;6002216;23;20027;-74
2022/02/23 10:04:13;;;;;;;5.18;4.97;;;;;;;7.88;77.08;102179.91;6022290;23;20463;-73
2022/02/23 10:06:41;;;;;;;3.67;3.58;;;;;;;8.39;77.03;102229.53;6019710;23;20039;-73
2022/02/23 10:09:10;;;;;;;5.35;5.05;;;;;;;8.63;75.48;102223.91;6008238;23;20335;-73
2022/02/23 10:11:39;;;;;;;4.05;3.85;;;;;;;8.78;74.73;102227.09;6008966;23;20094;-73
2022/02/23 10:14:07;;;;;;;5.25;5.05;;;;;;;8.87;72.85;102230.41;6025176;23;20032;-75
2022/02/23 10:16:36;;;;;;;3.80;3.67;;;;;;;8.41;72.09;102139.69;6008258;23;20532;-73
2022/02/23 10:19:33;;;;;;;5.05;4.85;;;;;;;8.97;71.85;102221.47;6031496;23;20025;-74
2022/02/23 10:22:01;;;;;;;5.00;4.80;;;;;;;9.08;70.71;102224.72;5993356;23;20030;-73
2022/02/23 10:24:29;;;;;;;3.65;3.55;;;;;;;9.10;68.80;102227.28;6031200;23;20439;-73
2022/02/23 10:27:11;;;;;;;3.58;3.45;;;;;;;9.23;68.66;102218.28;6032282;23;20038;-73
2022/02/23 10:29:53;;;;;;;3.70;3.60;;;;;;;9.35;67.72;102227.63;5996116;23;20103;-73
2022/02/23 10:32:24;;;;;;;4.00;3.80;;;;;;;8.84;66.65;102159.78;6008959;23;20030;-73
2022/02/23 10:34:53;;;;;;;4.20;4.03;;;;;;;9.48;67.23;102228.19;5995829;23;20015;-74
2022/02/23 10:37:25;;;;;;;3.85;3.67;;;;;;;9.64;65.13;102226.09;6034287;23;20054;-72
2022/02/23 10:39:54;;;;;;;3.60;3.50;;;;;;;9.34;64.55;102182.22;6017567;23;20354;-73
2022/02/23 10:42:26;;;;;;;4.10;3.90;;;;;;;9.67;65.27;102220.78;6034754;23;20675;-73
2022/02/23 10:44:54;;;;;;;3.80;3.70;;;;;;;9.59;65.22;102177.25;6026356;23;20055;-73
2022/02/23 10:47:37;;;;;;;3.95;3.80;;;;;;;10.07;65.78;102225.03;6039778;23;20022;-72
2022/02/23 10:50:14;;;;;;;5.15;4.95;;;;;;;9.01;63.96;102024.09;5993286;23;20032;-74
2022/02/23 10:52:44;;;;;;;3.75;3.65;;;;;;;10.04;62.87;102189.25;5991025;23;20530;-75
2022/02/23 10:55:13;;;;;;;4.95;4.75;;;;;;;9.94;61.52;102172.91;6025427;23;20041;-74
2022/02/23 10:57:45;;;;;;;3.97;3.80;;;;;;;9.71;61.46;102102.69;6028386;23;20030;-72
2022/02/23 11:00:13;;;;;;;5.38;5.18;;;;;;;10.42;61.78;102215.41;6013677;23;20520;-73
2022/02/23 11:02:40;;;;;;;3.97;3.83;;;;;;;10.33;60.77;102193.75;6010311;23;20035;-74
2022/02/23 11:05:06;;;;;;;4.80;4.60;;;;;;;10.54;60.91;102173.06;6038882;23;20578;-73
2022/02/23 11:07:33;;;;;;;4.00;3.80;;;;;;;10.70;59.64;102195.34;6025869;23;20515;-73
2022/02/23 11:10:00;;;;;;;3.92;3.80;;;;;;;10.71;60.17;102199.69;6006694;23;20015;-72
2022/02/23 11:12:27;;;;;;;4.10;3.90;;;;;;;10.47;59.42;102161.88;6001719;23;20630;-72
2022/02/23 11:14:55;;;;;;;4.30;4.10;;;;;;;10.91;59.25;102193.03;5973706;23;20138;-75
2022/02/23 11:17:24;;;;;;;4.15;3.95;;;;;;;10.85;58.08;102180.06;6025318;23;20082;-74
2022/02/23 11:19:52;;;;;;;4.20;4.00;;;;;;;10.80;57.85;102150.44;5982636;23;20287;-74
2022/02/23 11:22:19;;;;;;;4.15;3.95;;;;;;;10.73;56.80;102140.13;6030832;23;20022;-72
2022/02/23 11:24:46;;;;;;;3.80;3.70;;;;;;;10.68;57.08;102138.53;6002559;23;20113;-72
2022/02/23 11:27:18;;;;;;;5.30;5.10;;;;;;;10.35;57.46;102081.72;6028287;23;20658;-73
2022/02/23 11:30:05;;;;;;;4.20;4.00;;;;;;;10.75;57.51;102150.59;5996182;23;20094;-73
2022/02/23 11:32:39;;;;;;;5.20;4.00;;;;;;;11.09;56.81;102181.94;6029227;23;20081;-73
2022/02/23 11:35:07;;;;;;;5.22;5.03;;;;;;;10.67;56.49;102121.06;6020616;23;20215;-73
2022/02/23 11:37:34;;;;;;;4.45;4.25;;;;;;;10.97;56.64;102156.91;5989948;23;20015;-73
2022/02/23 11:40:01;;;;;;;4.95;4.75;;;;;;;11.28;56.68;102169.09;6014717;23;20468;-73